Fdny Bravest — WDF9251 — position and weather

sailwx.info

Track history (hours):
 
Tides and Currents Weather Stations Pressure Air Temp Water Temp Dewpoint Dewpoint Depression Visibility Wind Speed Wind Dir Waves Ship Positions

Fdny Bravest

Owner: NEW YORK CITY FIRE DEPT, BROOKLYN, NY. More information available from US FCC via Universal Licensing System.

Last reported at 2018-Jul-18 05:01 UTC. Time now 2018-Jul-18 04:57 UTC.
Position N 40°42' W 073°58'.

Length 11 m.

MMSI: 367503230.

Date/timePositionNaut miles runAvg speedWind from/ knotsBaromVisibWave heightAir tempDewpointWater temp
2018-Jul-18 05:01N 40°42' W 073°58'0 0.0
2018-Jul-18 04:30N 40°42' W 073°58'0 0.0
2018-Jul-18 04:01N 40°42' W 073°58'0 0.0
2018-Jul-18 03:31N 40°42' W 073°58'0 0.0
2018-Jul-18 03:00N 40°42' W 073°58'0 0.0
2018-Jul-18 02:31N 40°42' W 073°58'0 0.0
2018-Jul-18 02:01N 40°42' W 073°58'0 0.0
2018-Jul-18 01:31N 40°42' W 073°58'0 0.0
2018-Jul-18 01:00N 40°42' W 073°58'0 0.0
2018-Jul-18 00:31N 40°42' W 073°58'0 0.0
2018-Jul-18 00:01N 40°42' W 073°58'0 0.0
2018-Jul-17 23:31N 40°42' W 073°58'0 0.0
2018-Jul-17 23:00N 40°42' W 073°58'0 0.0
2018-Jul-17 22:30N 40°42' W 073°58'0 0.0
2018-Jul-17 22:01N 40°42' W 073°58'0 0.0
2018-Jul-17 21:31N 40°42' W 073°58'0 0.0
2018-Jul-17 21:01N 40°42' W 073°58'0 0.0
2018-Jul-17 20:31N 40°42' W 073°58'0 0.0
2018-Jul-17 20:01N 40°42' W 073°58'0 0.0
2018-Jul-17 19:30N 40°42' W 073°58'0 0.0
2018-Jul-17 19:01N 40°42' W 073°58'0 0.0
2018-Jul-17 18:30N 40°42' W 073°58'0 0.0
2018-Jul-17 18:01N 40°42' W 073°58'0 0.0
2018-Jul-17 17:30N 40°42' W 073°58'0 0.0
2018-Jul-17 17:00N 40°42' W 073°58'0 0.5
2018-Jul-17 16:30N 40°42' W 073°59'0 0.5
2018-Jul-17 16:00N 40°42' W 073°58'0 0.0
2018-Jul-17 15:21N 40°42' W 073°58'0 0.0
2018-Jul-17 14:57N 40°42' W 073°58'0 0.0
2018-Jul-17 14:28N 40°42' W 073°58'0 0.0
2018-Jul-17 14:00N 40°42' W 073°58'0 0.0
2018-Jul-17 13:30N 40°42' W 073°58'0 0.0
2018-Jul-17 13:00N 40°42' W 073°58'0 0.0
2018-Jul-17 12:30N 40°42' W 073°58'0 0.0
2018-Jul-17 12:00N 40°42' W 073°58'0 0.0
2018-Jul-17 11:30N 40°42' W 073°58'0 0.0
2018-Jul-17 11:00N 40°42' W 073°58'0 0.0
2018-Jul-17 10:29N 40°42' W 073°58'0 0.0
2018-Jul-17 10:00N 40°42' W 073°58'0 0.0
2018-Jul-17 09:30N 40°42' W 073°58'0 0.0
2018-Jul-17 09:00N 40°42' W 073°58'0 0.0
2018-Jul-17 08:30N 40°42' W 073°58'0 0.0
2018-Jul-17 08:00N 40°42' W 073°58'0 0.0
2018-Jul-17 07:30N 40°42' W 073°58'0 0.0
2018-Jul-17 07:00N 40°42' W 073°58'0 0.0
2018-Jul-17 06:29N 40°42' W 073°58'0 0.0
2018-Jul-17 06:00N 40°42' W 073°58'0 0.0
2018-Jul-17 05:30N 40°42' W 073°58'0 0.0
2018-Jul-17 05:00N 40°42' W 073°58'0 0.0
2018-Jul-17 04:30N 40°42' W 073°58'0 0.0
2018-Jul-17 04:00N 40°42' W 073°58'0 0.0
2018-Jul-17 03:30N 40°42' W 073°58'0 0.0
2018-Jul-17 03:00N 40°42' W 073°58'0 0.0
2018-Jul-17 02:30N 40°42' W 073°58'0 0.0
2018-Jul-17 02:00N 40°42' W 073°58'0 0.0
2018-Jul-17 01:30N 40°42' W 073°58'2 1.8
2018-Jul-17 00:28N 40°44' W 073°58'2 1.9
2018-Jul-16 23:30N 40°42' W 073°58'1 2.7
2018-Jul-16 23:01N 40°42' W 074°00'1 2.6
2018-Jul-16 22:30N 40°42' W 073°58'0 0.0
2018-Jul-16 22:00N 40°42' W 073°58'0 0.0
2018-Jul-16 21:30N 40°42' W 073°58'0 0.0
2018-Jul-16 21:00N 40°42' W 073°58'3 4.3
2018-Jul-16 20:22N 40°45' W 073°58'3 7.5
2018-Jul-16 20:00N 40°42' W 073°58'0 0.0
2018-Jul-16 19:30N 40°42' W 073°58'0 0.0
2018-Jul-16 19:00N 40°42' W 073°58'0 0.0
2018-Jul-16 18:30N 40°42' W 073°58'0 0.0
2018-Jul-16 18:00N 40°42' W 073°58'0 0.0
2018-Jul-16 17:30N 40°42' W 073°58'0 0.0
2018-Jul-16 17:00N 40°42' W 073°58'0 0.0
2018-Jul-16 16:30N 40°42' W 073°58'0 0.0
2018-Jul-16 15:59N 40°42' W 073°58'0 0.0
2018-Jul-16 15:30N 40°42' W 073°58'0 0.0
2018-Jul-16 15:00N 40°42' W 073°58'3 5.6
2018-Jul-16 14:30N 40°40' W 074°01'0 0.0
2018-Jul-16 14:00N 40°40' W 074°01'4 6.9
2018-Jul-16 13:29N 40°38' W 074°04'0 0.0
2018-Jul-16 12:51N 40°38' W 074°04'1 3.6
2018-Jul-16 12:30N 40°39' W 074°04'510.4
2018-Jul-16 12:00N 40°42' W 073°58'0 0.0
2018-Jul-16 11:30N 40°42' W 073°58'0 0.0
2018-Jul-16 11:00N 40°42' W 073°58'0 0.0
2018-Jul-16 10:30N 40°42' W 073°58'0 0.0
2018-Jul-16 10:01N 40°42' W 073°58'0 0.0
2018-Jul-16 09:30N 40°42' W 073°58'0 0.0
2018-Jul-16 09:00N 40°42' W 073°58'0 0.0
2018-Jul-16 08:30N 40°42' W 073°58'0 0.0
2018-Jul-16 08:00N 40°42' W 073°58'0 0.0
2018-Jul-16 07:30N 40°42' W 073°58'0 0.0
2018-Jul-16 07:00N 40°42' W 073°58'0 0.0
2018-Jul-16 06:30N 40°42' W 073°58'0 0.0
2018-Jul-16 06:00N 40°42' W 073°58'0 0.0
2018-Jul-16 05:30N 40°42' W 073°58'0 0.0
2018-Jul-16 05:00N 40°42' W 073°58'0 0.0
2018-Jul-16 04:30N 40°42' W 073°58'0 0.0
2018-Jul-16 04:00N 40°42' W 073°58'0 0.0
2018-Jul-16 03:30N 40°42' W 073°58'0 0.0
2018-Jul-16 03:00N 40°42' W 073°58'0 0.0
2018-Jul-16 02:30N 40°42' W 073°58'0 0.0
2018-Jul-16 02:00N 40°42' W 073°58'0 0.0
2018-Jul-16 01:30N 40°42' W 073°58'0 0.0
2018-Jul-16 01:00N 40°42' W 073°58'0 0.0
2018-Jul-16 00:30N 40°42' W 073°58'0 0.0
2018-Jul-16 00:00N 40°42' W 073°58'0 0.0
2018-Jul-15 23:30N 40°42' W 073°58'0 0.0
2018-Jul-15 23:00N 40°42' W 073°58'0 0.0
2018-Jul-15 22:30N 40°42' W 073°58'0 0.0
2018-Jul-15 22:00N 40°42' W 073°58'0 0.0
2018-Jul-15 21:26N 40°42' W 073°58'0 0.0
2018-Jul-15 19:41N 40°42' W 073°58'0 0.0
2018-Jul-15 19:26N 40°42' W 073°58'0 0.0
2018-Jul-15 17:56N 40°42' W 073°58'0 0.0
2018-Jul-15 15:55N 40°42' W 073°58'0 0.0
2018-Jul-15 10:08N 40°42' W 073°58'0 0.0
2018-Jul-15 09:59N 40°42' W 073°58'0 0.0
2018-Jul-15 09:28N 40°42' W 073°58'0 0.0
2018-Jul-15 08:59N 40°42' W 073°58'0 0.0
2018-Jul-15 08:30N 40°42' W 073°58'0 0.0
2018-Jul-15 08:00N 40°42' W 073°58'0 0.0
2018-Jul-15 07:30N 40°42' W 073°58'0 0.0
2018-Jul-15 07:00N 40°42' W 073°58'0 0.0
2018-Jul-15 06:30N 40°42' W 073°58'0 0.0
2018-Jul-15 06:00N 40°42' W 073°58'0 0.0
2018-Jul-15 05:30N 40°42' W 073°58'0 0.0
2018-Jul-15 05:00N 40°42' W 073°58'0 0.0
2018-Jul-15 04:30N 40°42' W 073°58'0 0.0
2018-Jul-15 04:00N 40°42' W 073°58'0 0.0
2018-Jul-15 03:30N 40°42' W 073°58'0 0.0
2018-Jul-15 03:00N 40°42' W 073°58'0 0.0
2018-Jul-15 02:30N 40°42' W 073°58'0 0.0
2018-Jul-15 02:00N 40°42' W 073°58'0 0.0
2018-Jul-15 01:30N 40°42' W 073°58'3 5.7
2018-Jul-15 01:00N 40°44' W 074°01'3 5.7
2018-Jul-15 00:30N 40°42' W 073°58'0 0.0
2018-Jul-15 00:00N 40°42' W 073°58'0 0.0
2018-Jul-14 23:30N 40°42' W 073°58'0 0.0
2018-Jul-14 23:00N 40°42' W 073°58'0 0.9
2018-Jul-14 22:30N 40°43' W 073°58'0 0.9
2018-Jul-14 22:00N 40°42' W 073°58'0 0.0
2018-Jul-14 21:30N 40°42' W 073°58'0 0.0
2018-Jul-14 20:59N 40°42' W 073°58'0 0.0
2018-Jul-14 20:30N 40°42' W 073°58'0 0.0
2018-Jul-14 20:00N 40°42' W 073°58'0 0.0
2018-Jul-14 18:01N 40°42' W 073°58'0 0.0
2018-Jul-14 17:59N 40°42' W 073°58'0 0.0
2018-Jul-14 15:04N 40°42' W 073°58'0 0.1
2018-Jul-14 15:00N 40°42' W 073°58'0 0.0
2018-Jul-14 14:31N 40°42' W 073°58'0 0.0
2018-Jul-13 17:19N 40°42' W 073°58'0 0.0
2018-Jul-13 17:00N 40°42' W 073°58'0 0.0
2018-Jul-13 16:30N 40°42' W 073°58'3 5.7
2018-Jul-13 16:00N 40°40' W 074°01'0 0.2
2018-Jul-13 15:30N 40°40' W 074°01'1 1.3
2018-Jul-13 15:00N 40°41' W 074°01'2 2.4
2018-Jul-13 14:00N 40°42' W 073°58'0 0.0
2018-Jul-13 13:30N 40°42' W 073°58'0 0.0
2018-Jul-13 13:00N 40°42' W 073°58'0 0.0
2018-Jul-13 12:30N 40°42' W 073°58'0 0.0
2018-Jul-13 12:00N 40°42' W 073°58'0 0.0
2018-Jul-13 11:30N 40°42' W 073°58'0 0.0
2018-Jul-13 11:00N 40°42' W 073°58'0 0.0
2018-Jul-13 10:30N 40°42' W 073°58'2 3.1
2018-Jul-13 10:01N 40°42' W 074°00'1 2.1
2018-Jul-13 09:30N 40°42' W 073°59'1 1.2
2018-Jul-13 09:00N 40°42' W 073°58'0 0.0
2018-Jul-13 08:30N 40°42' W 073°58'0 0.0
2018-Jul-13 08:00N 40°42' W 073°58'0 0.0
2018-Jul-13 07:30N 40°42' W 073°58'0 0.0
2018-Jul-13 07:00N 40°42' W 073°58'0 0.0
2018-Jul-13 06:30N 40°42' W 073°58'0 0.0
2018-Jul-13 06:00N 40°42' W 073°58'0 0.0
2018-Jul-13 05:30N 40°42' W 073°58'0 0.0
2018-Jul-13 05:00N 40°42' W 073°58'0 0.0
2018-Jul-13 04:30N 40°42' W 073°58'0 0.0
2018-Jul-13 04:00N 40°42' W 073°58'0 0.0
2018-Jul-13 03:30N 40°42' W 073°58'0 0.0
2018-Jul-13 03:00N 40°42' W 073°58'0 0.0
2018-Jul-13 02:30N 40°42' W 073°58'0 0.0
2018-Jul-13 02:00N 40°42' W 073°58'0 0.0
2018-Jul-13 01:30N 40°42' W 073°58'0 0.0
2018-Jul-13 01:00N 40°42' W 073°58'0 0.0
2018-Jul-13 00:30N 40°42' W 073°58'0 0.0
2018-Jul-13 00:00N 40°42' W 073°58'0 0.0
2018-Jul-12 23:30N 40°42' W 073°58'3 5.9
2018-Jul-12 22:59N 40°45' W 073°58'0 0.3
2018-Jul-12 22:29N 40°45' W 073°58'1 0.2
2018-Jul-12 20:06N 40°45' W 073°58'222.9
2018-Jul-12 20:00N 40°43' W 073°58'0 0.9
2018-Jul-12 19:29N 40°42' W 073°58'0 0.0
2018-Jul-12 19:00N 40°42' W 073°58'0 0.0
2018-Jul-12 18:30N 40°42' W 073°58'0 0.0
2018-Jul-12 18:00N 40°42' W 073°58'0 0.0
2018-Jul-12 17:29N 40°42' W 073°58'0 0.0
2018-Jul-12 17:00N 40°42' W 073°58'0 0.0
2018-Jul-12 16:30N 40°42' W 073°58'0 0.0
2018-Jul-12 16:00N 40°42' W 073°58'0 0.0
2018-Jul-12 15:30N 40°42' W 073°58'0 0.0
2018-Jul-12 15:00N 40°42' W 073°58'0 0.0
2018-Jul-12 14:30N 40°42' W 073°58'3 5.5
2018-Jul-12 14:00N 40°40' W 074°01'0 0.0
2018-Jul-12 13:30N 40°40' W 074°01'3 5.6
2018-Jul-12 13:00N 40°42' W 073°58'0 0.0
2018-Jul-12 12:30N 40°42' W 073°58'0 0.0
2018-Jul-12 12:00N 40°42' W 073°58'0 0.0
2018-Jul-12 11:30N 40°42' W 073°58'0 0.0
2018-Jul-12 11:00N 40°42' W 073°58'0 0.0
2018-Jul-12 10:30N 40°42' W 073°58'0 0.0
2018-Jul-12 10:00N 40°42' W 073°58'0 0.0
2018-Jul-12 09:30N 40°42' W 073°58'0 0.0
2018-Jul-12 09:00N 40°42' W 073°58'0 0.0
2018-Jul-12 08:30N 40°42' W 073°58'2 3.4
2018-Jul-12 07:49N 40°45' W 073°58'2 7.5
2018-Jul-12 07:30N 40°42' W 073°58'0 0.0
2018-Jul-12 07:00N 40°42' W 073°58'0 0.0
2018-Jul-12 06:30N 40°42' W 073°58'0 0.0
2018-Jul-12 06:00N 40°42' W 073°58'0 0.0
2018-Jul-12 05:30N 40°42' W 073°58'0 0.0
2018-Jul-12 05:00N 40°42' W 073°58'0 0.0
2018-Jul-12 04:30N 40°42' W 073°58'0 0.0
2018-Jul-12 04:00N 40°42' W 073°58'0 0.0
2018-Jul-12 03:30N 40°42' W 073°58'0 0.0
2018-Jul-12 03:00N 40°42' W 073°58'0 0.0
2018-Jul-12 02:30N 40°42' W 073°58'2 3.2
2018-Jul-12 02:00N 40°44' W 073°58'2 3.1
2018-Jul-12 01:31N 40°42' W 073°58'0 0.0
2018-Jul-12 01:00N 40°42' W 073°58'3 5.2
2018-Jul-12 00:31N 40°41' W 074°01'3 6.1
2018-Jul-12 00:00N 40°44' W 074°01'3 5.1
2018-Jul-11 23:30N 40°42' W 073°58'0 0.0
2018-Jul-11 23:00N 40°42' W 073°58'0 0.0
2018-Jul-11 22:30N 40°42' W 073°58'0 0.0
2018-Jul-11 22:00N 40°42' W 073°58'0 0.0
2018-Jul-11 21:30N 40°42' W 073°58'0 0.0
2018-Jul-11 21:00N 40°42' W 073°58'0 0.0
2018-Jul-11 20:30N 40°42' W 073°58'0 0.0
2018-Jul-11 20:01N 40°42' W 073°58'0 0.0
2018-Jul-11 19:31N 40°42' W 073°58'0 0.0
2018-Jul-11 19:00N 40°42' W 073°58'0 0.0
2018-Jul-11 18:30N 40°42' W 073°58'0 0.0
2018-Jul-11 18:00N 40°42' W 073°58'0 0.0
2018-Jul-11 17:29N 40°42' W 073°58'0 0.0
2018-Jul-11 17:00N 40°42' W 073°58'0 0.0
2018-Jul-11 16:30N 40°42' W 073°58'0 0.0
2018-Jul-11 16:00N 40°42' W 073°58'0 0.0
2018-Jul-11 15:31N 40°42' W 073°58'2 3.4
2018-Jul-11 15:00N 40°42' W 074°01'0 0.2
2018-Jul-11 14:30N 40°42' W 074°01'2 3.2
2018-Jul-11 14:00N 40°40' W 074°01'0 0.0
2018-Jul-11 13:30N 40°40' W 074°01'3 5.5
2018-Jul-11 13:00N 40°42' W 073°58'0 0.0
2018-Jul-11 12:30N 40°42' W 073°58'0 0.0
2018-Jul-11 12:00N 40°42' W 073°58'0 0.0
2018-Jul-11 06:05N 40°42' W 073°58'1 6.6
2018-Jul-11 06:00N 40°43' W 073°58'1 0.1
2018-Jul-11 01:44N 40°42' W 073°58'0 0.0
2018-Jul-11 01:30N 40°42' W 073°58'0 0.0
2018-Jul-11 01:00N 40°42' W 073°58'2 4.0
2018-Jul-11 00:30N 40°41' W 074°01'1 1.8
2018-Jul-11 00:00N 40°40' W 074°01'3 5.5
2018-Jul-10 23:30N 40°42' W 073°58'0 0.0
2018-Jul-10 23:00N 40°42' W 073°58'0 0.0
2018-Jul-10 22:30N 40°42' W 073°58'0 0.0
2018-Jul-10 22:00N 40°42' W 073°58'0 0.0
2018-Jul-10 21:30N 40°42' W 073°58'0 0.0
2018-Jul-10 21:00N 40°42' W 073°58'0 0.0
2018-Jul-10 20:30N 40°42' W 073°58'0 0.0
2018-Jul-10 20:00N 40°42' W 073°58'0 0.0
2018-Jul-10 19:30N 40°42' W 073°58'0 0.0
2018-Jul-10 19:00N 40°42' W 073°58'0 0.0
2018-Jul-10 18:30N 40°42' W 073°58'3 5.6
2018-Jul-10 18:00N 40°40' W 074°01'0 0.1
2018-Jul-10 17:30N 40°40' W 074°01'2 3.7
2018-Jul-10 16:59N 40°42' W 074°00'1 1.7
2018-Jul-10 16:31N 40°42' W 074°01'2 3.6
2018-Jul-10 16:00N 40°42' W 073°59'0 0.5
2018-Jul-10 15:31N 40°42' W 073°58'0 0.0
2018-Jul-10 15:00N 40°42' W 073°58'0 0.0
2018-Jul-10 14:31N 40°42' W 073°58'0 0.0
2018-Jul-10 14:01N 40°42' W 073°58'0 0.0
2018-Jul-10 13:30N 40°42' W 073°58'0 0.0
2018-Jul-10 13:00N 40°42' W 073°58'0 0.0
2018-Jul-10 12:31N 40°42' W 073°58'0 0.0
2018-Jul-10 12:01N 40°42' W 073°58'0 0.0
2018-Jul-10 11:31N 40°42' W 073°58'0 0.0
2018-Jul-10 11:00N 40°42' W 073°58'0 0.0
2018-Jul-10 10:31N 40°42' W 073°58'0 0.0
2018-Jul-10 10:00N 40°42' W 073°58'0 0.0
2018-Jul-10 09:30N 40°42' W 073°58'0 0.0
2018-Jul-10 09:01N 40°42' W 073°58'0 0.0
2018-Jul-10 08:30N 40°42' W 073°58'0 0.0
2018-Jul-10 08:00N 40°42' W 073°58'0 0.0
2018-Jul-10 07:31N 40°42' W 073°58'0 0.0
2018-Jul-10 07:00N 40°42' W 073°58'0 0.0
2018-Jul-10 06:31N 40°42' W 073°58'0 0.0
2018-Jul-10 06:00N 40°42' W 073°58'0 0.0
2018-Jul-10 05:30N 40°42' W 073°58'0 0.0
2018-Jul-10 05:01N 40°42' W 073°58'0 0.0
2018-Jul-10 04:30N 40°42' W 073°58'0 0.0
2018-Jul-10 04:01N 40°42' W 073°58'0 0.0
2018-Jul-10 03:30N 40°42' W 073°58'0 0.0
2018-Jul-10 03:00N 40°42' W 073°58'0 0.0
2018-Jul-10 02:30N 40°42' W 073°58'0 0.0
2018-Jul-10 02:00N 40°42' W 073°58'0 0.0
2018-Jul-10 01:30N 40°42' W 073°58'0 0.0
2018-Jul-10 01:00N 40°42' W 073°58'0 0.0
2018-Jul-10 00:31N 40°42' W 073°58'2 3.2
2018-Jul-10 00:00N 40°44' W 073°58'2 3.4
2018-Jul-09 23:25N 40°46' W 073°57'4 8.7
2018-Jul-09 23:00N 40°42' W 073°58'0 0.0
2018-Jul-09 22:30N 40°42' W 073°58'0 0.0
2018-Jul-09 22:00N 40°42' W 073°58'0 0.0
2018-Jul-09 21:30N 40°42' W 073°58'0 0.0
2018-Jul-09 20:59N 40°42' W 073°58'0 0.0
2018-Jul-09 20:30N 40°42' W 073°58'0 0.0
2018-Jul-09 20:00N 40°42' W 073°58'0 0.0
2018-Jul-09 19:30N 40°42' W 073°58'0 0.0
2018-Jul-09 19:00N 40°42' W 073°58'0 0.0
2018-Jul-09 18:30N 40°42' W 073°58'0 0.0
2018-Jul-09 18:00N 40°42' W 073°58'0 0.0
2018-Jul-09 17:30N 40°42' W 073°58'0 0.0
2018-Jul-09 17:00N 40°42' W 073°58'2 3.6
2018-Jul-09 16:30N 40°41' W 074°00'1 2.3
2018-Jul-09 16:01N 40°40' W 074°01'3 5.5
2018-Jul-09 15:31N 40°42' W 073°58'0 0.0
2018-Jul-09 15:00N 40°42' W 073°58'0 0.0
2018-Jul-09 13:20N 40°42' W 073°58'0 0.0
2018-Jul-09 12:59N 40°42' W 073°58'0 0.0
2018-Jul-09 12:23N 40°42' W 073°58'0 0.0
2018-Jul-09 12:00N 40°42' W 073°58'0 0.0
2018-Jul-09 11:13N 40°42' W 073°58'0 0.0
2018-Jul-09 11:00N 40°42' W 073°58'  
Track history (hours):
 
Tides and Currents Weather Stations Pressure Air Temp Water Temp Dewpoint Dewpoint Depression Visibility Wind Speed Wind Dir Waves Ship Positions

Fdny Bravest

Owner: NEW YORK CITY FIRE DEPT, BROOKLYN, NY. More information available from US FCC via Universal Licensing System.

Last reported at 2018-Jul-18 05:01 UTC. Time now 2018-Jul-18 04:57 UTC.
Position N 40°42' W 073°58'.

Length 11 m.

MMSI: 367503230.

Date/timePositionNaut miles runAvg speedWind from/ knotsBaromVisibWave heightAir tempDewpointWater temp
2018-Jul-18 05:01N 40°42' W 073°58'0 0.0
2018-Jul-18 04:30N 40°42' W 073°58'0 0.0
2018-Jul-18 04:01N 40°42' W 073°58'0 0.0
2018-Jul-18 03:31N 40°42' W 073°58'0 0.0
2018-Jul-18 03:00N 40°42' W 073°58'0 0.0
2018-Jul-18 02:31N 40°42' W 073°58'0 0.0
2018-Jul-18 02:01N 40°42' W 073°58'0 0.0
2018-Jul-18 01:31N 40°42' W 073°58'0 0.0
2018-Jul-18 01:00N 40°42' W 073°58'0 0.0
2018-Jul-18 00:31N 40°42' W 073°58'0 0.0
2018-Jul-18 00:01N 40°42' W 073°58'0 0.0
2018-Jul-17 23:31N 40°42' W 073°58'0 0.0
2018-Jul-17 23:00N 40°42' W 073°58'0 0.0
2018-Jul-17 22:30N 40°42' W 073°58'0 0.0
2018-Jul-17 22:01N 40°42' W 073°58'0 0.0
2018-Jul-17 21:31N 40°42' W 073°58'0 0.0
2018-Jul-17 21:01N 40°42' W 073°58'0 0.0
2018-Jul-17 20:31N 40°42' W 073°58'0 0.0
2018-Jul-17 20:01N 40°42' W 073°58'0 0.0
2018-Jul-17 19:30N 40°42' W 073°58'0 0.0
2018-Jul-17 19:01N 40°42' W 073°58'0 0.0
2018-Jul-17 18:30N 40°42' W 073°58'0 0.0
2018-Jul-17 18:01N 40°42' W 073°58'0 0.0
2018-Jul-17 17:30N 40°42' W 073°58'0 0.0
2018-Jul-17 17:00N 40°42' W 073°58'0 0.5
2018-Jul-17 16:30N 40°42' W 073°59'0 0.5
2018-Jul-17 16:00N 40°42' W 073°58'0 0.0
2018-Jul-17 15:21N 40°42' W 073°58'0 0.0
2018-Jul-17 14:57N 40°42' W 073°58'0 0.0
2018-Jul-17 14:28N 40°42' W 073°58'0 0.0
2018-Jul-17 14:00N 40°42' W 073°58'0 0.0
2018-Jul-17 13:30N 40°42' W 073°58'0 0.0
2018-Jul-17 13:00N 40°42' W 073°58'0 0.0
2018-Jul-17 12:30N 40°42' W 073°58'0 0.0
2018-Jul-17 12:00N 40°42' W 073°58'0 0.0
2018-Jul-17 11:30N 40°42' W 073°58'0 0.0
2018-Jul-17 11:00N 40°42' W 073°58'0 0.0
2018-Jul-17 10:29N 40°42' W 073°58'0 0.0
2018-Jul-17 10:00N 40°42' W 073°58'0 0.0
2018-Jul-17 09:30N 40°42' W 073°58'0 0.0
2018-Jul-17 09:00N 40°42' W 073°58'0 0.0
2018-Jul-17 08:30N 40°42' W 073°58'0 0.0
2018-Jul-17 08:00N 40°42' W 073°58'0 0.0
2018-Jul-17 07:30N 40°42' W 073°58'0 0.0
2018-Jul-17 07:00N 40°42' W 073°58'0 0.0
2018-Jul-17 06:29N 40°42' W 073°58'0 0.0
2018-Jul-17 06:00N 40°42' W 073°58'0 0.0
2018-Jul-17 05:30N 40°42' W 073°58'0 0.0
2018-Jul-17 05:00N 40°42' W 073°58'0 0.0
2018-Jul-17 04:30N 40°42' W 073°58'0 0.0
2018-Jul-17 04:00N 40°42' W 073°58'0 0.0
2018-Jul-17 03:30N 40°42' W 073°58'0 0.0
2018-Jul-17 03:00N 40°42' W 073°58'0 0.0
2018-Jul-17 02:30N 40°42' W 073°58'0 0.0
2018-Jul-17 02:00N 40°42' W 073°58'0 0.0
2018-Jul-17 01:30N 40°42' W 073°58'2 1.8
2018-Jul-17 00:28N 40°44' W 073°58'2 1.9
2018-Jul-16 23:30N 40°42' W 073°58'1 2.7
2018-Jul-16 23:01N 40°42' W 074°00'1 2.6
2018-Jul-16 22:30N 40°42' W 073°58'0 0.0
2018-Jul-16 22:00N 40°42' W 073°58'0 0.0
2018-Jul-16 21:30N 40°42' W 073°58'0 0.0
2018-Jul-16 21:00N 40°42' W 073°58'3 4.3
2018-Jul-16 20:22N 40°45' W 073°58'3 7.5
2018-Jul-16 20:00N 40°42' W 073°58'0 0.0
2018-Jul-16 19:30N 40°42' W 073°58'0 0.0
2018-Jul-16 19:00N 40°42' W 073°58'0 0.0
2018-Jul-16 18:30N 40°42' W 073°58'0 0.0
2018-Jul-16 18:00N 40°42' W 073°58'0 0.0
2018-Jul-16 17:30N 40°42' W 073°58'0 0.0
2018-Jul-16 17:00N 40°42' W 073°58'0 0.0
2018-Jul-16 16:30N 40°42' W 073°58'0 0.0
2018-Jul-16 15:59N 40°42' W 073°58'0 0.0
2018-Jul-16 15:30N 40°42' W 073°58'0 0.0
2018-Jul-16 15:00N 40°42' W 073°58'3 5.6
2018-Jul-16 14:30N 40°40' W 074°01'0 0.0
2018-Jul-16 14:00N 40°40' W 074°01'4 6.9
2018-Jul-16 13:29N 40°38' W 074°04'0 0.0
2018-Jul-16 12:51N 40°38' W 074°04'1 3.6
2018-Jul-16 12:30N 40°39' W 074°04'510.4
2018-Jul-16 12:00N 40°42' W 073°58'0 0.0
2018-Jul-16 11:30N 40°42' W 073°58'0 0.0
2018-Jul-16 11:00N 40°42' W 073°58'0 0.0
2018-Jul-16 10:30N 40°42' W 073°58'0 0.0
2018-Jul-16 10:01N 40°42' W 073°58'0 0.0
2018-Jul-16 09:30N 40°42' W 073°58'0 0.0
2018-Jul-16 09:00N 40°42' W 073°58'0 0.0
2018-Jul-16 08:30N 40°42' W 073°58'0 0.0
2018-Jul-16 08:00N 40°42' W 073°58'0 0.0
2018-Jul-16 07:30N 40°42' W 073°58'0 0.0
2018-Jul-16 07:00N 40°42' W 073°58'0 0.0
2018-Jul-16 06:30N 40°42' W 073°58'0 0.0
2018-Jul-16 06:00N 40°42' W 073°58'0 0.0
2018-Jul-16 05:30N 40°42' W 073°58'0 0.0
2018-Jul-16 05:00N 40°42' W 073°58'0 0.0
2018-Jul-16 04:30N 40°42' W 073°58'0 0.0
2018-Jul-16 04:00N 40°42' W 073°58'0 0.0
2018-Jul-16 03:30N 40°42' W 073°58'0 0.0
2018-Jul-16 03:00N 40°42' W 073°58'0 0.0
2018-Jul-16 02:30N 40°42' W 073°58'0 0.0
2018-Jul-16 02:00N 40°42' W 073°58'0 0.0
2018-Jul-16 01:30N 40°42' W 073°58'0 0.0
2018-Jul-16 01:00N 40°42' W 073°58'0 0.0
2018-Jul-16 00:30N 40°42' W 073°58'0 0.0
2018-Jul-16 00:00N 40°42' W 073°58'0 0.0
2018-Jul-15 23:30N 40°42' W 073°58'0 0.0
2018-Jul-15 23:00N 40°42' W 073°58'0 0.0
2018-Jul-15 22:30N 40°42' W 073°58'0 0.0
2018-Jul-15 22:00N 40°42' W 073°58'0 0.0
2018-Jul-15 21:26N 40°42' W 073°58'0 0.0
2018-Jul-15 19:41N 40°42' W 073°58'0 0.0
2018-Jul-15 19:26N 40°42' W 073°58'0 0.0
2018-Jul-15 17:56N 40°42' W 073°58'0 0.0
2018-Jul-15 15:55N 40°42' W 073°58'0 0.0
2018-Jul-15 10:08N 40°42' W 073°58'0 0.0
2018-Jul-15 09:59N 40°42' W 073°58'0 0.0
2018-Jul-15 09:28N 40°42' W 073°58'0 0.0
2018-Jul-15 08:59N 40°42' W 073°58'0 0.0
2018-Jul-15 08:30N 40°42' W 073°58'0 0.0
2018-Jul-15 08:00N 40°42' W 073°58'0 0.0
2018-Jul-15 07:30N 40°42' W 073°58'0 0.0
2018-Jul-15 07:00N 40°42' W 073°58'0 0.0
2018-Jul-15 06:30N 40°42' W 073°58'0 0.0
2018-Jul-15 06:00N 40°42' W 073°58'0 0.0
2018-Jul-15 05:30N 40°42' W 073°58'0 0.0
2018-Jul-15 05:00N 40°42' W 073°58'0 0.0
2018-Jul-15 04:30N 40°42' W 073°58'0 0.0
2018-Jul-15 04:00N 40°42' W 073°58'0 0.0
2018-Jul-15 03:30N 40°42' W 073°58'0 0.0
2018-Jul-15 03:00N 40°42' W 073°58'0 0.0
2018-Jul-15 02:30N 40°42' W 073°58'0 0.0
2018-Jul-15 02:00N 40°42' W 073°58'0 0.0
2018-Jul-15 01:30N 40°42' W 073°58'3 5.7
2018-Jul-15 01:00N 40°44' W 074°01'3 5.7
2018-Jul-15 00:30N 40°42' W 073°58'0 0.0
2018-Jul-15 00:00N 40°42' W 073°58'0 0.0
2018-Jul-14 23:30N 40°42' W 073°58'0 0.0
2018-Jul-14 23:00N 40°42' W 073°58'0 0.9
2018-Jul-14 22:30N 40°43' W 073°58'0 0.9
2018-Jul-14 22:00N 40°42' W 073°58'0 0.0
2018-Jul-14 21:30N 40°42' W 073°58'0 0.0
2018-Jul-14 20:59N 40°42' W 073°58'0 0.0
2018-Jul-14 20:30N 40°42' W 073°58'0 0.0
2018-Jul-14 20:00N 40°42' W 073°58'0 0.0
2018-Jul-14 18:01N 40°42' W 073°58'0 0.0
2018-Jul-14 17:59N 40°42' W 073°58'0 0.0
2018-Jul-14 15:04N 40°42' W 073°58'0 0.1
2018-Jul-14 15:00N 40°42' W 073°58'0 0.0
2018-Jul-14 14:31N 40°42' W 073°58'0 0.0
2018-Jul-13 17:19N 40°42' W 073°58'0 0.0
2018-Jul-13 17:00N 40°42' W 073°58'0 0.0
2018-Jul-13 16:30N 40°42' W 073°58'3 5.7
2018-Jul-13 16:00N 40°40' W 074°01'0 0.2
2018-Jul-13 15:30N 40°40' W 074°01'1 1.3
2018-Jul-13 15:00N 40°41' W 074°01'2 2.4
2018-Jul-13 14:00N 40°42' W 073°58'0 0.0
2018-Jul-13 13:30N 40°42' W 073°58'0 0.0
2018-Jul-13 13:00N 40°42' W 073°58'0 0.0
2018-Jul-13 12:30N 40°42' W 073°58'0 0.0
2018-Jul-13 12:00N 40°42' W 073°58'0 0.0
2018-Jul-13 11:30N 40°42' W 073°58'0 0.0
2018-Jul-13 11:00N 40°42' W 073°58'0 0.0
2018-Jul-13 10:30N 40°42' W 073°58'2 3.1
2018-Jul-13 10:01N 40°42' W 074°00'1 2.1
2018-Jul-13 09:30N 40°42' W 073°59'1 1.2
2018-Jul-13 09:00N 40°42' W 073°58'0 0.0
2018-Jul-13 08:30N 40°42' W 073°58'0 0.0
2018-Jul-13 08:00N 40°42' W 073°58'0 0.0
2018-Jul-13 07:30N 40°42' W 073°58'0 0.0
2018-Jul-13 07:00N 40°42' W 073°58'0 0.0
2018-Jul-13 06:30N 40°42' W 073°58'0 0.0
2018-Jul-13 06:00N 40°42' W 073°58'0 0.0
2018-Jul-13 05:30N 40°42' W 073°58'0 0.0
2018-Jul-13 05:00N 40°42' W 073°58'0 0.0
2018-Jul-13 04:30N 40°42' W 073°58'0 0.0
2018-Jul-13 04:00N 40°42' W 073°58'0 0.0
2018-Jul-13 03:30N 40°42' W 073°58'0 0.0
2018-Jul-13 03:00N 40°42' W 073°58'0 0.0
2018-Jul-13 02:30N 40°42' W 073°58'0 0.0
2018-Jul-13 02:00N 40°42' W 073°58'0 0.0
2018-Jul-13 01:30N 40°42' W 073°58'0 0.0
2018-Jul-13 01:00N 40°42' W 073°58'0 0.0
2018-Jul-13 00:30N 40°42' W 073°58'0 0.0
2018-Jul-13 00:00N 40°42' W 073°58'0 0.0
2018-Jul-12 23:30N 40°42' W 073°58'3 5.9
2018-Jul-12 22:59N 40°45' W 073°58'0 0.3
2018-Jul-12 22:29N 40°45' W 073°58'1 0.2
2018-Jul-12 20:06N 40°45' W 073°58'222.9
2018-Jul-12 20:00N 40°43' W 073°58'0 0.9
2018-Jul-12 19:29N 40°42' W 073°58'0 0.0
2018-Jul-12 19:00N 40°42' W 073°58'0 0.0
2018-Jul-12 18:30N 40°42' W 073°58'0 0.0
2018-Jul-12 18:00N 40°42' W 073°58'0 0.0
2018-Jul-12 17:29N 40°42' W 073°58'0 0.0
2018-Jul-12 17:00N 40°42' W 073°58'0 0.0
2018-Jul-12 16:30N 40°42' W 073°58'0 0.0
2018-Jul-12 16:00N 40°42' W 073°58'0 0.0
2018-Jul-12 15:30N 40°42' W 073°58'0 0.0
2018-Jul-12 15:00N 40°42' W 073°58'0 0.0
2018-Jul-12 14:30N 40°42' W 073°58'3 5.5
2018-Jul-12 14:00N 40°40' W 074°01'0 0.0
2018-Jul-12 13:30N 40°40' W 074°01'3 5.6
2018-Jul-12 13:00N 40°42' W 073°58'0 0.0
2018-Jul-12 12:30N 40°42' W 073°58'0 0.0
2018-Jul-12 12:00N 40°42' W 073°58'0 0.0
2018-Jul-12 11:30N 40°42' W 073°58'0 0.0
2018-Jul-12 11:00N 40°42' W 073°58'0 0.0
2018-Jul-12 10:30N 40°42' W 073°58'0 0.0
2018-Jul-12 10:00N 40°42' W 073°58'0 0.0
2018-Jul-12 09:30N 40°42' W 073°58'0 0.0
2018-Jul-12 09:00N 40°42' W 073°58'0 0.0
2018-Jul-12 08:30N 40°42' W 073°58'2 3.4
2018-Jul-12 07:49N 40°45' W 073°58'2 7.5
2018-Jul-12 07:30N 40°42' W 073°58'0 0.0
2018-Jul-12 07:00N 40°42' W 073°58'0 0.0
2018-Jul-12 06:30N 40°42' W 073°58'0 0.0
2018-Jul-12 06:00N 40°42' W 073°58'0 0.0
2018-Jul-12 05:30N 40°42' W 073°58'0 0.0
2018-Jul-12 05:00N 40°42' W 073°58'0 0.0
2018-Jul-12 04:30N 40°42' W 073°58'0 0.0
2018-Jul-12 04:00N 40°42' W 073°58'0 0.0
2018-Jul-12 03:30N 40°42' W 073°58'0 0.0
2018-Jul-12 03:00N 40°42' W 073°58'0 0.0
2018-Jul-12 02:30N 40°42' W 073°58'2 3.2
2018-Jul-12 02:00N 40°44' W 073°58'2 3.1
2018-Jul-12 01:31N 40°42' W 073°58'0 0.0
2018-Jul-12 01:00N 40°42' W 073°58'3 5.2
2018-Jul-12 00:31N 40°41' W 074°01'3 6.1
2018-Jul-12 00:00N 40°44' W 074°01'3 5.1
2018-Jul-11 23:30N 40°42' W 073°58'0 0.0
2018-Jul-11 23:00N 40°42' W 073°58'0 0.0
2018-Jul-11 22:30N 40°42' W 073°58'0 0.0
2018-Jul-11 22:00N 40°42' W 073°58'0 0.0
2018-Jul-11 21:30N 40°42' W 073°58'0 0.0
2018-Jul-11 21:00N 40°42' W 073°58'0 0.0
2018-Jul-11 20:30N 40°42' W 073°58'0 0.0
2018-Jul-11 20:01N 40°42' W 073°58'0 0.0
2018-Jul-11 19:31N 40°42' W 073°58'0 0.0
2018-Jul-11 19:00N 40°42' W 073°58'0 0.0
2018-Jul-11 18:30N 40°42' W 073°58'0 0.0
2018-Jul-11 18:00N 40°42' W 073°58'0 0.0
2018-Jul-11 17:29N 40°42' W 073°58'0 0.0
2018-Jul-11 17:00N 40°42' W 073°58'0 0.0
2018-Jul-11 16:30N 40°42' W 073°58'0 0.0
2018-Jul-11 16:00N 40°42' W 073°58'0 0.0
2018-Jul-11 15:31N 40°42' W 073°58'2 3.4
2018-Jul-11 15:00N 40°42' W 074°01'0 0.2
2018-Jul-11 14:30N 40°42' W 074°01'2 3.2
2018-Jul-11 14:00N 40°40' W 074°01'0 0.0
2018-Jul-11 13:30N 40°40' W 074°01'3 5.5
2018-Jul-11 13:00N 40°42' W 073°58'0 0.0
2018-Jul-11 12:30N 40°42' W 073°58'0 0.0
2018-Jul-11 12:00N 40°42' W 073°58'0 0.0
2018-Jul-11 06:05N 40°42' W 073°58'1 6.6
2018-Jul-11 06:00N 40°43' W 073°58'1 0.1
2018-Jul-11 01:44N 40°42' W 073°58'0 0.0
2018-Jul-11 01:30N 40°42' W 073°58'0 0.0
2018-Jul-11 01:00N 40°42' W 073°58'2 4.0
2018-Jul-11 00:30N 40°41' W 074°01'1 1.8
2018-Jul-11 00:00N 40°40' W 074°01'3 5.5
2018-Jul-10 23:30N 40°42' W 073°58'0 0.0
2018-Jul-10 23:00N 40°42' W 073°58'0 0.0
2018-Jul-10 22:30N 40°42' W 073°58'0 0.0
2018-Jul-10 22:00N 40°42' W 073°58'0 0.0
2018-Jul-10 21:30N 40°42' W 073°58'0 0.0
2018-Jul-10 21:00N 40°42' W 073°58'0 0.0
2018-Jul-10 20:30N 40°42' W 073°58'0 0.0
2018-Jul-10 20:00N 40°42' W 073°58'0 0.0
2018-Jul-10 19:30N 40°42' W 073°58'0 0.0
2018-Jul-10 19:00N 40°42' W 073°58'0 0.0
2018-Jul-10 18:30N 40°42' W 073°58'3 5.6
2018-Jul-10 18:00N 40°40' W 074°01'0 0.1
2018-Jul-10 17:30N 40°40' W 074°01'2 3.7
2018-Jul-10 16:59N 40°42' W 074°00'1 1.7
2018-Jul-10 16:31N 40°42' W 074°01'2 3.6
2018-Jul-10 16:00N 40°42' W 073°59'0 0.5
2018-Jul-10 15:31N 40°42' W 073°58'0 0.0
2018-Jul-10 15:00N 40°42' W 073°58'0 0.0
2018-Jul-10 14:31N 40°42' W 073°58'0 0.0
2018-Jul-10 14:01N 40°42' W 073°58'0 0.0
2018-Jul-10 13:30N 40°42' W 073°58'0 0.0
2018-Jul-10 13:00N 40°42' W 073°58'0 0.0
2018-Jul-10 12:31N 40°42' W 073°58'0 0.0
2018-Jul-10 12:01N 40°42' W 073°58'0 0.0
2018-Jul-10 11:31N 40°42' W 073°58'0 0.0
2018-Jul-10 11:00N 40°42' W 073°58'0 0.0
2018-Jul-10 10:31N 40°42' W 073°58'0 0.0
2018-Jul-10 10:00N 40°42' W 073°58'0 0.0
2018-Jul-10 09:30N 40°42' W 073°58'0 0.0
2018-Jul-10 09:01N 40°42' W 073°58'0 0.0
2018-Jul-10 08:30N 40°42' W 073°58'0 0.0
2018-Jul-10 08:00N 40°42' W 073°58'0 0.0
2018-Jul-10 07:31N 40°42' W 073°58'0 0.0
2018-Jul-10 07:00N 40°42' W 073°58'0 0.0
2018-Jul-10 06:31N 40°42' W 073°58'0 0.0
2018-Jul-10 06:00N 40°42' W 073°58'0 0.0
2018-Jul-10 05:30N 40°42' W 073°58'0 0.0
2018-Jul-10 05:01N 40°42' W 073°58'0 0.0
2018-Jul-10 04:30N 40°42' W 073°58'0 0.0
2018-Jul-10 04:01N 40°42' W 073°58'0 0.0
2018-Jul-10 03:30N 40°42' W 073°58'0 0.0
2018-Jul-10 03:00N 40°42' W 073°58'0 0.0
2018-Jul-10 02:30N 40°42' W 073°58'0 0.0
2018-Jul-10 02:00N 40°42' W 073°58'0 0.0
2018-Jul-10 01:30N 40°42' W 073°58'0 0.0
2018-Jul-10 01:00N 40°42' W 073°58'0 0.0
2018-Jul-10 00:31N 40°42' W 073°58'2 3.2
2018-Jul-10 00:00N 40°44' W 073°58'2 3.4
2018-Jul-09 23:25N 40°46' W 073°57'4 8.7
2018-Jul-09 23:00N 40°42' W 073°58'0 0.0
2018-Jul-09 22:30N 40°42' W 073°58'0 0.0
2018-Jul-09 22:00N 40°42' W 073°58'0 0.0
2018-Jul-09 21:30N 40°42' W 073°58'0 0.0
2018-Jul-09 20:59N 40°42' W 073°58'0 0.0
2018-Jul-09 20:30N 40°42' W 073°58'0 0.0
2018-Jul-09 20:00N 40°42' W 073°58'0 0.0
2018-Jul-09 19:30N 40°42' W 073°58'0 0.0
2018-Jul-09 19:00N 40°42' W 073°58'0 0.0
2018-Jul-09 18:30N 40°42' W 073°58'0 0.0
2018-Jul-09 18:00N 40°42' W 073°58'0 0.0
2018-Jul-09 17:30N 40°42' W 073°58'0 0.0
2018-Jul-09 17:00N 40°42' W 073°58'2 3.6
2018-Jul-09 16:30N 40°41' W 074°00'1 2.3
2018-Jul-09 16:01N 40°40' W 074°01'3 5.5
2018-Jul-09 15:31N 40°42' W 073°58'0 0.0
2018-Jul-09 15:00N 40°42' W 073°58'0 0.0
2018-Jul-09 13:20N 40°42' W 073°58'0 0.0
2018-Jul-09 12:59N 40°42' W 073°58'0 0.0
2018-Jul-09 12:23N 40°42' W 073°58'0 0.0
2018-Jul-09 12:00N 40°42' W 073°58'0 0.0
2018-Jul-09 11:13N 40°42' W 073°58'0 0.0
2018-Jul-09 11:00N 40°42' W 073°58'  

Dump ship's entire track history